Terminal Aerodrome Forecast
Issued by NWS Dallas/Fort Worth, TX

Home | Current Version | Previous Version | Text Only | Print | Product List | Glossary On
Versions: 1 2 3 4 5 6 7 8 9 10 11 12 13 14 15 16 17 18
000
FTUS44 KFWD 271100
TAFACT
TAF
KACT 271130Z 2712/2812 33016G26KT P6SM OVC010
     FM271700 33017KT P6SM VCSH OVC020
      TEMPO 2721/2801 4SM SHRA
     FM280300 36013KT P6SM OVC050=

USA.gov is the U.S. government's official web portal to all federal, state and local government web resources and services.